createdAt,value
2022-08-26T00:04:42.114Z,4.20
2022-08-26T00:09:47.432Z,4.25
2022-08-26T00:14:52.107Z,3.30
2022-08-26T00:19:55.146Z,2.92
2022-08-26T00:24:58.322Z,3.70
2022-08-26T00:30:03.459Z,3.28
2022-08-26T00:35:08.068Z,3.33
2022-08-26T00:40:16.488Z,2.83
2022-08-26T00:45:22.053Z,2.88
2022-08-26T00:50:42.443Z,3.17
2022-08-26T00:55:45.569Z,3.22
2022-08-26T01:00:50.050Z,3.65
2022-08-26T01:05:56.641Z,3.40
2022-08-26T01:11:07.471Z,3.10
2022-08-26T01:16:16.743Z,3.03
2022-08-26T01:21:28.190Z,2.70
2022-08-26T01:26:36.749Z,2.33
2022-08-26T01:31:43.586Z,2.15
2022-08-26T01:36:51.342Z,3.85
2022-08-26T01:41:58.630Z,2.72
2022-08-26T01:47:07.780Z,3.55
2022-08-26T01:52:17.412Z,2.63
2022-08-26T01:57:22.990Z,2.70
2022-08-26T02:02:27.341Z,2.53
2022-08-26T02:07:35.266Z,3.03
2022-08-26T02:12:41.271Z,2.85
2022-08-26T02:17:47.931Z,3.35
2022-08-26T02:22:55.738Z,3.15
2022-08-26T02:28:00.182Z,2.90
2022-08-26T02:33:04.992Z,2.85
2022-08-26T02:38:11.198Z,2.17
2022-08-26T02:43:15.813Z,2.00
2022-08-26T02:48:21.326Z,2.20
2022-08-26T02:53:25.392Z,2.25
2022-08-26T02:58:30.329Z,1.88
2022-08-26T03:03:36.498Z,2.13
2022-08-26T03:08:39.780Z,2.25
2022-08-26T03:13:44.355Z,1.83
2022-08-26T03:18:52.208Z,2.13
2022-08-26T03:23:56.161Z,1.98
2022-08-26T03:29:21.083Z,2.05
2022-08-26T03:34:24.515Z,2.53
2022-08-26T03:39:31.479Z,1.83
2022-08-26T03:44:37.066Z,1.73
2022-08-26T03:49:45.139Z,2.00
2022-08-26T03:54:48.188Z,1.98
2022-08-26T03:59:52.733Z,1.75
2022-08-26T04:04:56.812Z,1.70
2022-08-26T04:10:00.439Z,1.70
2022-08-26T04:15:05.505Z,1.40
2022-08-26T04:20:09.772Z,1.80
2022-08-26T04:25:14.091Z,1.60
2022-08-26T04:30:20.136Z,1.73
2022-08-26T04:35:26.169Z,1.30
2022-08-26T04:40:29.412Z,1.73
2022-08-26T04:45:37.423Z,1.88
2022-08-26T04:50:41.229Z,1.30
2022-08-26T04:55:46.571Z,1.17
2022-08-26T05:00:55.118Z,1.48
2022-08-26T05:05:59.043Z,1.80
2022-08-26T05:11:05.744Z,2.10
2022-08-26T05:16:12.901Z,2.35
2022-08-26T05:21:20.636Z,1.77
2022-08-26T05:26:24.879Z,1.60
2022-08-26T05:31:32.572Z,1.65
2022-08-26T05:36:37.811Z,1.40
2022-08-26T05:41:44.779Z,2.10
2022-08-26T05:46:49.482Z,1.80
2022-08-26T05:51:54.435Z,1.95
2022-08-26T05:56:57.588Z,1.42
2022-08-26T06:02:03.577Z,1.77
2022-08-26T06:07:06.637Z,1.35
2022-08-26T06:12:13.006Z,1.67
2022-08-26T06:17:19.720Z,1.10
2022-08-26T06:22:40.200Z,1.52
2022-08-26T06:27:43.517Z,1.55
2022-08-26T06:32:49.449Z,1.42
2022-08-26T06:37:52.445Z,1.73
2022-08-26T06:42:55.566Z,1.65
2022-08-26T06:48:00.423Z,1.95
2022-08-26T06:53:04.529Z,1.50
2022-08-26T06:58:07.655Z,1.70
2022-08-26T07:03:12.797Z,1.90
2022-08-26T07:08:16.386Z,1.90
2022-08-26T07:13:29.893Z,1.30
2022-08-26T07:18:39.081Z,1.40
2022-08-26T07:23:42.715Z,1.83
2022-08-26T07:28:47.243Z,1.67
2022-08-26T07:33:57.639Z,1.98
2022-08-26T07:39:00.823Z,1.83
2022-08-26T07:44:04.389Z,1.95
2022-08-26T07:49:09.531Z,2.00
2022-08-26T07:54:12.637Z,1.70
2022-08-26T07:59:17.049Z,1.58
2022-08-26T08:04:26.040Z,1.30
2022-08-26T08:09:29.723Z,1.27
2022-08-26T08:14:34.630Z,1.30
2022-08-26T08:19:39.343Z,1.15
2022-08-26T08:24:42.836Z,1.60
2022-08-26T08:29:46.610Z,1.35
2022-08-26T08:34:51.060Z,1.38
2022-08-26T08:39:54.741Z,1.00
2022-08-26T08:45:00.600Z,1.17
2022-08-26T08:50:13.874Z,1.08
2022-08-26T08:55:18.254Z,1.08
2022-08-26T09:00:30.088Z,1.08
2022-08-26T09:05:42.612Z,1.42
2022-08-26T09:10:52.797Z,2.05
2022-08-26T09:16:07.127Z,1.55
2022-08-26T09:21:15.325Z,1.88
2022-08-26T09:26:29.362Z,1.58
2022-08-26T09:31:35.882Z,1.42
2022-08-26T09:36:43.904Z,1.90
2022-08-26T09:42:03.702Z,1.85
2022-08-26T09:47:09.104Z,1.15
2022-08-26T09:52:23.507Z,2.45
2022-08-26T09:57:29.756Z,1.05
2022-08-26T10:02:47.731Z,1.00
2022-08-26T10:07:54.800Z,1.48
2022-08-26T10:13:06.297Z,1.27
2022-08-26T10:18:15.196Z,1.20
2022-08-26T10:23:23.377Z,1.10
2022-08-26T10:28:33.788Z,0.82
2022-08-26T10:33:39.284Z,0.90
2022-08-26T10:38:44.438Z,1.15
2022-08-26T10:43:52.504Z,0.90
2022-08-26T10:49:00.235Z,0.95
2022-08-26T10:54:11.992Z,0.93
2022-08-26T10:59:22.780Z,0.98
2022-08-26T11:04:38.793Z,1.05
2022-08-26T11:09:47.873Z,0.77
2022-08-26T11:14:58.734Z,0.60
2022-08-26T11:20:09.241Z,0.90
2022-08-26T11:25:19.353Z,0.85
2022-08-26T11:30:48.605Z,0.90
2022-08-26T11:36:00.111Z,1.33
2022-08-26T11:41:21.877Z,0.90
2022-08-26T11:46:28.055Z,1.10
2022-08-26T11:51:31.922Z,1.45
2022-08-26T11:56:38.159Z,1.30
2022-08-26T12:01:45.680Z,2.03
2022-08-26T12:06:52.421Z,1.70
2022-08-26T12:12:15.010Z,1.80
2022-08-26T12:17:22.454Z,1.70
2022-08-26T12:22:28.733Z,1.25
2022-08-26T12:27:34.996Z,1.63
2022-08-26T12:32:57.115Z,1.10
2022-08-26T12:38:01.516Z,1.30
2022-08-26T12:43:07.431Z,1.50
2022-08-26T12:48:13.534Z,1.13
2022-08-26T12:53:22.361Z,1.52
2022-08-26T12:58:31.693Z,1.15
2022-08-26T13:03:44.542Z,1.27
2022-08-26T13:08:48.634Z,1.65
2022-08-26T13:13:56.728Z,1.40
2022-08-26T13:19:03.107Z,1.20
2022-08-26T13:24:09.422Z,1.17
2022-08-26T13:29:14.375Z,1.30
2022-08-26T13:34:19.536Z,1.45
2022-08-26T13:39:23.637Z,1.50
2022-08-26T13:44:28.322Z,1.63
2022-08-26T13:49:31.217Z,1.40
2022-08-26T13:54:34.624Z,1.25
2022-08-26T13:59:39.158Z,1.52
2022-08-26T14:04:43.388Z,2.00
2022-08-26T14:09:46.498Z,1.90
2022-08-26T14:14:51.210Z,1.77
2022-08-26T14:19:54.656Z,1.08
2022-08-26T14:24:57.643Z,1.63
2022-08-26T14:30:03.432Z,1.33
2022-08-26T14:35:07.351Z,1.80
2022-08-26T14:40:14.266Z,2.17
2022-08-26T14:45:23.515Z,1.63
2022-08-26T14:50:27.853Z,1.75
2022-08-26T14:55:36.003Z,1.23
2022-08-26T15:00:40.458Z,1.70
2022-08-26T15:05:48.040Z,1.70
2022-08-26T15:10:51.252Z,1.38
2022-08-26T15:15:55.807Z,1.30
2022-08-26T15:20:58.882Z,1.48
2022-08-26T15:26:04.350Z,1.63
2022-08-26T15:31:09.803Z,1.60
2022-08-26T15:36:12.933Z,1.80
2022-08-26T15:41:16.141Z,2.03
2022-08-26T15:46:21.166Z,1.65
2022-08-26T15:51:25.786Z,1.38
2022-08-26T15:56:31.074Z,2.15
2022-08-26T16:01:36.318Z,1.55
2022-08-26T16:06:41.612Z,1.23
2022-08-26T16:11:44.597Z,1.80
2022-08-26T16:16:49.250Z,3.08
2022-08-26T16:21:52.513Z,1.60
2022-08-26T16:26:55.932Z,1.73
2022-08-26T16:32:00.285Z,1.20
2022-08-26T16:37:03.466Z,1.73
2022-08-26T16:42:06.768Z,1.85
2022-08-26T16:47:12.219Z,1.75
2022-08-26T16:52:15.223Z,1.27
2022-08-26T16:57:18.259Z,1.70
2022-08-26T17:02:22.651Z,1.50
2022-08-26T17:07:27.610Z,1.52
2022-08-26T17:12:31.392Z,1.60
2022-08-26T17:17:35.927Z,1.83
2022-08-26T17:22:40.498Z,1.38
2022-08-26T17:27:44.597Z,1.30
2022-08-26T17:32:49.697Z,1.67
2022-08-26T17:37:53.137Z,2.05
2022-08-26T17:42:56.751Z,1.80
2022-08-26T17:48:01.445Z,1.77
2022-08-26T17:53:04.645Z,2.00
2022-08-26T17:58:07.970Z,1.55
2022-08-26T18:03:12.437Z,1.58
2022-08-26T18:08:15.483Z,1.77
2022-08-26T18:13:19.329Z,1.80
2022-08-26T18:18:23.680Z,1.73
2022-08-26T18:23:26.948Z,1.63
2022-08-26T18:28:37.841Z,2.03
2022-08-26T18:33:43.216Z,1.70
2022-08-26T18:38:46.630Z,1.92
2022-08-26T18:43:50.870Z,2.58
2022-08-26T18:48:56.840Z,2.38
2022-08-26T18:54:01.337Z,1.90
2022-08-26T18:59:05.847Z,2.30
2022-08-26T19:04:15.302Z,2.25
2022-08-26T19:09:20.028Z,1.88
2022-08-26T19:14:23.935Z,2.00
2022-08-26T19:19:28.679Z,2.38
2022-08-26T19:24:32.232Z,2.35
2022-08-26T19:29:36.874Z,2.45
2022-08-26T19:34:41.217Z,2.30
2022-08-26T19:39:44.232Z,2.28
2022-08-26T19:45:04.375Z,2.05
2022-08-26T19:50:11.557Z,2.78
2022-08-26T19:55:17.021Z,2.80
2022-08-26T20:00:22.501Z,2.35
2022-08-26T20:05:27.995Z,2.70
2022-08-26T20:10:31.003Z,2.47
2022-08-26T20:15:34.114Z,3.03
2022-08-26T20:20:56.082Z,2.65
2022-08-26T20:25:59.043Z,2.33
2022-08-26T20:31:04.727Z,2.60
2022-08-26T20:36:10.789Z,2.67
2022-08-26T20:41:14.212Z,2.40
2022-08-26T20:46:20.298Z,2.47
2022-08-26T20:51:27.404Z,2.60
2022-08-26T20:56:30.558Z,3.38
2022-08-26T21:01:42.320Z,2.85
2022-08-26T21:06:52.708Z,2.90
2022-08-26T21:11:56.338Z,2.47
2022-08-26T21:16:59.564Z,2.70
2022-08-26T21:22:04.054Z,2.92
2022-08-26T21:27:07.071Z,2.55
2022-08-26T21:32:10.184Z,2.60
2022-08-26T21:37:20.169Z,2.92
2022-08-26T21:42:24.564Z,3.28
2022-08-26T21:47:27.712Z,2.55
2022-08-26T21:52:37.548Z,3.30
2022-08-26T21:57:40.900Z,3.25
2022-08-26T22:02:44.535Z,3.47
2022-08-26T22:07:49.167Z,3.10
2022-08-26T22:12:52.430Z,2.67
2022-08-26T22:17:55.611Z,2.92
2022-08-26T22:23:00.976Z,3.05
2022-08-26T22:28:08.329Z,2.92
2022-08-26T22:33:11.859Z,2.45
2022-08-26T22:38:16.721Z,3.20
2022-08-26T22:43:20.342Z,2.90
2022-08-26T22:48:25.774Z,2.47
2022-08-26T22:53:30.564Z,2.65
2022-08-26T22:58:38.869Z,3.10
2022-08-26T23:03:42.301Z,2.83
2022-08-26T23:08:47.461Z,3.20
2022-08-26T23:13:50.727Z,3.40
2022-08-26T23:18:55.477Z,3.08
2022-08-26T23:24:00.049Z,3.15
2022-08-26T23:29:03.967Z,2.60
2022-08-26T23:34:25.115Z,2.55
2022-08-26T23:39:29.808Z,2.78
2022-08-26T23:44:32.975Z,2.95
2022-08-26T23:49:37.103Z,2.47
2022-08-26T23:54:41.925Z,2.92
2022-08-26T23:59:45.195Z,2.88
